메인 페이지
METAR-TAF:

METAR-TAF

공항 :

Savannah/Hilton Head International Airport

서배너, 조지아, 미국

위도: 32-07-08N, 경도: 081-12-08W, 고도: 15m

현재 날씨관측

예보는 51분 전, 05:53시(UTC)에 발표되었습니다.
4kt
온도 27°C
습도 79%
기압 1020 hPa
시정: 16.1km
맑음

METAR: KSAV 170553Z AUTO 09004KT 10SM CLR 27/23 A3012 RMK AO2 SLP200 T02670233 10294 20267 50002 $

시각: 02:44 (06:44 UTC)

예보

예보는 1 시간 19분 전, 05:25시(UTC)에 발표되었습니다.
예보 대상 시간: 17일 06시부터 18일 06시까지 (UTC)
동북동3kt
시정: 10km
고도 2500ft 상공 구름 조금
고도 25000ft 상공 구름 보통
17일 1200시부터 (UTC)
9kt
시정: 10km
고도 2500ft 상공 구름 조금
고도 25000ft 상공 구름 보통
17일 1700시부터 (UTC)
14kt, 순간 최대 풍속 21kt
시정: 10km
고도 5000ft 상공 구름 보통
고도 25000ft 상공 구름 보통
18일 0100시부터 (UTC)
8kt
시정: 10km
고도 8000ft 상공 구름 조금
고도 25000ft 상공 구름 많음

TAF: KSAV 170525Z 1706/1806 07003KT P6SM FEW025 SCT250 FM171200 08009KT P6SM FEW025 SCT250 FM171700 10014G21KT P6SM SCT050 SCT250 FM180100 09008KT P6SM FEW080 BKN250

4,000개 이상의 공항 관측 자료 및 예보 (METAR 및 TAF 보고).

지도상에서 검색 가능한 기상관측소가 노란 점과 빨간 점으로 표시되어 있습니다.

기상관측소 명을 보려면 표시 위로 마우스를 이동하세요.

날씨 관측과 예보를 보려면 클릭하세요.

지도 변경 : 확대하려면 엑스 표시가 있는 녹색 버튼, 축소하려면 빼기 표시가 있는 녹색 버튼, 다음 페이지의 지도를 보려면 녹색 화살표를 클릭하세요.


METAR-TAF: